Time;durP1;ratioP1;P1;durP2;ratioP2;P2;SDS_P1;SDS_P2;PMS_P1;PMS_P2;Temp;Humidity;BMP_temperature;BMP_pressure;BME280_temperature;BME280_humidity;BME280_pressure;Samples;Min_cycle;Max_cycle;Signal;HPM_P1;HPM_P2
2023/05/29 00:00:37;;;;;;;;;13.67;12.67;;;;;20.80;51.78;101016.66;6229070;22;45247;-84
2023/05/29 00:03:06;;;;;;;;;13.00;12.00;;;;;20.81;52.58;101018.44;6199419;22;47185;-85
2023/05/29 00:05:31;;;;;;;;;12.00;11.33;;;;;20.75;52.41;101034.81;6201289;22;45380;-85
2023/05/29 00:07:56;;;;;;;;;12.33;10.00;;;;;20.78;52.21;101032.00;6225956;22;45902;-85
2023/05/29 00:10:22;;;;;;;;;12.67;10.00;;;;;20.77;52.11;101035.66;6197979;22;45371;-85
2023/05/29 00:12:50;;;;;;;;;16.00;15.67;;;;;20.73;52.77;101040.25;6197026;22;46941;-85
2023/05/29 00:15:16;;;;;;;;;12.67;12.67;;;;;20.71;52.08;101041.19;6198314;22;45325;-85
2023/05/29 00:17:42;;;;;;;;;10.33;10.33;;;;;20.64;51.92;101036.84;6224520;22;45433;-86
2023/05/29 00:20:11;;;;;;;;;11.00;10.33;;;;;20.66;52.07;101045.81;6198088;22;45526;-85
2023/05/29 00:22:37;;;;;;;;;9.00;9.00;;;;;20.63;52.25;101043.19;6224063;22;45404;-85
2023/05/29 00:25:07;;;;;;;;;9.33;9.33;;;;;20.63;52.87;101045.91;6225930;22;45493;-84
2023/05/29 00:27:36;;;;;;;;;14.00;12.00;;;;;20.60;52.95;101043.25;6230288;22;45359;-85
2023/05/29 00:30:03;;;;;;;;;13.67;12.33;;;;;20.52;53.01;101059.59;6229088;22;45484;-86
2023/05/29 00:32:28;;;;;;;;;14.33;11.00;;;;;20.42;53.32;101048.13;6200072;22;46904;-86
2023/05/29 00:34:55;;;;;;;;;15.67;13.00;;;;;20.40;53.64;101049.97;6223433;22;45363;-86
2023/05/29 00:37:21;;;;;;;;;11.00;11.00;;;;;20.29;52.87;101041.19;6197035;22;45321;-86
2023/05/29 00:39:50;;;;;;;;;15.00;11.33;;;;;20.33;53.25;101056.41;6223776;22;45330;-85
2023/05/29 00:42:16;;;;;;;;;14.00;13.33;;;;;20.34;53.30;101050.06;6197690;22;46889;-85
2023/05/29 00:44:42;;;;;;;;;11.67;10.33;;;;;20.22;53.20;101040.44;6225680;22;45322;-86
2023/05/29 00:47:07;;;;;;;;;13.67;11.67;;;;;20.20;53.03;101036.88;6198868;22;45468;-86
2023/05/29 00:49:36;;;;;;;;;8.00;8.00;;;;;20.16;53.87;101024.38;6197813;22;45277;-85
2023/05/29 00:52:02;;;;;;;;;13.67;12.00;;;;;20.08;53.25;101010.16;6198091;22;47111;-85
2023/05/29 00:54:32;;;;;;;;;14.33;14.00;;;;;20.11;53.58;101029.84;6198308;22;45226;-85
2023/05/29 00:57:04;;;;;;;;;13.33;10.33;;;;;20.16;53.31;101035.19;6224787;22;45440;-86
2023/05/29 00:59:32;;;;;;;;;12.33;11.00;;;;;20.11;53.56;101035.25;6196818;22;45505;-85
2023/05/29 01:02:04;;;;;;;;;12.33;10.00;;;;;20.09;54.16;101031.69;6197282;22;47728;-85
2023/05/29 01:04:29;;;;;;;;;11.33;9.33;;;;;20.01;53.59;101035.47;6224102;22;45353;-85
2023/05/29 01:06:56;;;;;;;;;10.00;10.00;;;;;19.94;53.98;101019.41;6224096;22;45358;-85
2023/05/29 01:09:24;;;;;;;;;17.00;13.33;;;;;19.90;53.74;101027.59;6224606;22;45407;-86
2023/05/29 01:12:14;;;;;;;;;14.33;11.00;;;;;20.04;54.06;101021.94;6223656;22;45674;-85
2023/05/29 01:14:55;;;;;;;;;12.67;10.33;;;;;19.99;53.97;101030.97;6197225;22;45956;-85
2023/05/29 01:17:33;;;;;;;;;14.00;11.33;;;;;19.95;54.34;101026.56;6197126;22;45502;-85
2023/05/29 01:20:29;;;;;;;;;13.00;10.00;;;;;19.93;54.59;101027.53;6225405;22;45396;-85
2023/05/29 01:23:13;;;;;;;;;13.33;11.33;;;;;19.93;53.79;101027.53;6224891;22;45502;-85
2023/05/29 01:26:04;;;;;;;;;12.33;11.00;;;;;19.89;54.10;101025.81;6224912;22;45347;-85
2023/05/29 01:28:40;;;;;;;;;10.00;10.00;;;;;19.84;54.18;101035.81;6198174;22;45238;-85
2023/05/29 01:31:07;;;;;;;;;10.00;10.00;;;;;19.79;54.58;101035.91;6227397;22;45268;-85
2023/05/29 01:33:33;;;;;;;;;12.00;11.67;;;;;19.69;54.82;101023.47;6198026;22;47176;-85
2023/05/29 01:35:58;;;;;;;;;9.33;9.00;;;;;19.65;54.61;101029.84;6226808;22;45255;-84
2023/05/29 01:38:24;;;;;;;;;11.67;11.00;;;;;19.59;54.68;101026.34;6199683;22;45261;-85
2023/05/29 01:40:50;;;;;;;;;14.00;13.67;;;;;19.57;55.65;101025.50;6201163;22;45568;-85
2023/05/29 01:43:16;;;;;;;;;7.33;7.33;;;;;19.55;55.14;101029.13;6200465;22;46742;-84
2023/05/29 01:45:41;;;;;;;;;11.00;10.33;;;;;19.57;54.41;101029.97;6227906;22;45280;-85
2023/05/29 01:48:07;;;;;;;;;9.67;9.67;;;;;19.50;54.96;101020.22;6200380;22;45356;-85
2023/05/29 01:50:34;;;;;;;;;16.33;11.33;;;;;19.55;54.83;101023.72;6200820;22;45419;-84
2023/05/29 01:52:59;;;;;;;;;11.00;10.33;;;;;19.53;55.42;101034.56;6175779;22;47765;-85
2023/05/29 01:55:25;;;;;;;;;11.67;11.67;;;;;19.53;54.63;101033.66;6199094;22;45783;-85
2023/05/29 01:57:51;;;;;;;;;10.33;10.33;;;;;19.49;55.91;101032.84;6200045;22;45479;-85
2023/05/29 02:00:18;;;;;;;;;11.67;11.67;;;;;19.47;55.17;101037.38;6226469;22;45324;-85
2023/05/29 02:02:44;;;;;;;;;15.00;11.00;;;;;19.42;55.03;101039.25;6199215;22;46700;-84
2023/05/29 02:05:10;;;;;;;;;13.33;11.33;;;;;19.37;56.54;101033.06;6226157;22;45343;-85
2023/05/29 02:07:38;;;;;;;;;11.67;11.67;;;;;19.33;55.27;101025.91;6226386;22;45716;-85
2023/05/29 02:10:05;;;;;;;;;12.67;11.33;;;;;19.27;56.86;101032.31;6200595;22;44769;-84
2023/05/29 02:12:31;;;;;;;;;10.33;9.00;;;;;19.22;56.60;101031.50;6200997;22;47453;-85
2023/05/29 02:14:56;;;;;;;;;10.00;10.00;;;;;19.16;56.39;101028.91;6227708;22;45386;-85
2023/05/29 02:17:22;;;;;;;;;9.33;8.33;;;;;19.14;55.74;101025.34;6200658;22;45408;-85
2023/05/29 02:19:48;;;;;;;;;12.33;12.33;;;;;19.11;56.22;101026.31;6225837;22;44727;-85
2023/05/29 02:22:13;;;;;;;;;14.00;10.00;;;;;19.07;56.74;101015.59;6226379;22;45224;-84
2023/05/29 02:24:38;;;;;;;;;13.67;13.00;;;;;19.08;57.50;101030.84;6226328;22;45308;-84
2023/05/29 02:27:04;;;;;;;;;15.00;10.00;;;;;18.99;57.24;101024.69;6199410;22;45497;-84
2023/05/29 02:29:29;;;;;;;;;16.67;13.00;;;;;18.97;57.28;101029.22;6225695;22;45416;-84
2023/05/29 02:31:55;;;;;;;;;14.00;12.67;;;;;19.02;56.73;101033.66;6225058;22;45351;-85
2023/05/29 02:34:22;;;;;;;;;15.67;12.00;;;;;18.94;57.46;101034.63;6227845;22;46254;-85
2023/05/29 02:36:48;;;;;;;;;13.00;13.00;;;;;18.88;58.06;101023.97;6200188;22;45362;-85
2023/05/29 02:39:13;;;;;;;;;10.33;10.33;;;;;18.79;57.86;101019.63;6200784;22;45372;-83
2023/05/29 02:41:42;;;;;;;;;14.33;13.67;;;;;18.92;57.21;101036.47;6200279;22;47909;-84
2023/05/29 02:44:07;;;;;;;;;11.67;10.67;;;;;18.72;58.78;101023.31;6199986;22;46070;-85
2023/05/29 02:46:33;;;;;;;;;16.00;15.33;;;;;18.72;58.96;101022.38;6200836;22;45281;-84
2023/05/29 02:48:58;;;;;;;;;15.00;13.00;;;;;18.66;57.81;101033.25;6227971;22;44698;-84
2023/05/29 02:51:33;;;;;;;;;14.00;10.00;;;;;18.66;58.40;101033.25;6227745;22;45568;-85
2023/05/29 02:53:58;;;;;;;;;14.33;13.33;;;;;18.62;59.55;101042.28;6227158;22;45320;-85
2023/05/29 02:56:27;;;;;;;;;10.00;10.00;;;;;18.68;59.14;101042.19;6201037;22;45425;-84
2023/05/29 02:58:52;;;;;;;;;13.67;12.00;;;;;18.51;58.82;101056.81;6201203;22;44825;-85
2023/05/29 03:01:18;;;;;;;;;12.33;11.33;;;;;18.42;60.57;101035.41;6201589;22;46886;-85
2023/05/29 03:03:43;;;;;;;;;19.67;14.33;;;;;18.40;60.21;101053.38;6200861;22;45701;-85
2023/05/29 03:06:09;;;;;;;;;15.33;13.00;;;;;18.39;59.31;101048.91;6227449;22;45383;-84
2023/05/29 03:08:39;;;;;;;;;15.00;10.33;;;;;18.36;59.41;101059.69;6226796;22;45274;-84
2023/05/29 03:11:06;;;;;;;;;8.33;7.33;;;;;18.30;59.42;101044.53;6199507;22;46786;-84
2023/05/29 03:13:34;;;;;;;;;15.67;14.67;;;;;18.26;60.47;101044.56;6225859;22;45400;-85
2023/05/29 03:15:59;;;;;;;;;10.67;10.67;;;;;18.21;60.27;101047.31;6198472;22;45239;-85
2023/05/29 03:18:25;;;;;;;;;15.33;15.00;;;;;18.22;60.67;101053.59;6225567;22;45563;-86
2023/05/29 03:20:50;;;;;;;;;13.67;11.33;;;;;18.14;60.65;101062.66;6223481;22;46103;-86
2023/05/29 03:23:16;;;;;;;;;12.00;10.33;;;;;18.10;61.38;101065.44;6199508;22;45630;-86
2023/05/29 03:25:41;;;;;;;;;18.00;16.00;;;;;18.02;60.79;101057.44;6200922;22;45404;-86
2023/05/29 03:28:06;;;;;;;;;20.00;16.33;;;;;18.02;61.88;101060.13;6226920;22;45260;-86
2023/05/29 03:30:32;;;;;;;;;16.00;14.33;;;;;18.03;62.21;101064.59;6227920;22;45293;-86
2023/05/29 03:33:03;;;;;;;;;14.33;11.67;;;;;17.98;61.26;101071.84;6228946;22;45295;-86
2023/05/29 03:35:28;;;;;;;;;16.33;15.00;;;;;17.93;61.95;101068.28;6228074;22;45327;-86
2023/05/29 03:37:54;;;;;;;;;17.33;14.33;;;;;17.89;62.84;101066.53;6225318;22;45338;-86
2023/05/29 03:40:19;;;;;;;;;12.67;10.00;;;;;17.83;61.66;101067.50;6225041;22;45351;-86
2023/05/29 03:42:44;;;;;;;;;16.67;16.67;;;;;17.82;62.68;101070.19;6196778;22;45280;-85
2023/05/29 03:45:10;;;;;;;;;14.00;12.33;;;;;17.80;63.42;101072.88;6199870;22;45292;-86
2023/05/29 03:47:36;;;;;;;;;15.00;13.00;;;;;17.82;62.99;101073.75;6199743;22;45162;-86
2023/05/29 03:50:01;;;;;;;;;14.00;13.00;;;;;17.67;62.82;101053.28;6226494;22;45731;-85
2023/05/29 03:52:27;;;;;;;;;14.67;13.67;;;;;17.73;63.30;101073.84;6199093;22;45935;-85
2023/05/29 03:54:52;;;;;;;;;15.33;14.67;;;;;17.70;63.38;101071.22;6198838;22;45261;-85
2023/05/29 03:57:18;;;;;;;;;17.00;15.33;;;;;17.67;64.93;101061.34;6199035;22;45335;-85
2023/05/29 03:59:43;;;;;;;;;16.67;12.67;;;;;17.67;65.32;101077.47;6225478;22;45102;-85
2023/05/29 04:02:09;;;;;;;;;17.00;16.67;;;;;17.65;63.22;101079.28;6198093;22;45656;-85
2023/05/29 04:04:34;;;;;;;;;13.00;13.00;;;;;17.64;63.97;101082.03;6226583;22;45297;-86
2023/05/29 04:07:01;;;;;;;;;19.00;16.67;;;;;17.69;65.29;101074.78;6200207;22;44822;-85
2023/05/29 04:09:27;;;;;;;;;17.00;14.33;;;;;17.67;64.04;101093.63;6200415;22;47479;-85
2023/05/29 04:11:54;;;;;;;;;14.67;12.67;;;;;17.72;63.55;101097.19;6198243;22;45374;-85
2023/05/29 04:14:20;;;;;;;;;15.67;14.00;;;;;17.71;63.52;101091.81;6225856;22;45391;-86
2023/05/29 04:16:48;;;;;;;;;14.67;14.67;;;;;17.76;63.46;101101.63;6199322;22;45298;-85
2023/05/29 04:19:13;;;;;;;;;18.33;18.00;;;;;17.74;65.51;101099.84;6200093;22;47303;-85
2023/05/29 04:21:39;;;;;;;;;17.00;17.00;;;;;17.69;63.92;101091.81;6224819;22;45268;-85
2023/05/29 04:24:05;;;;;;;;;20.00;18.67;;;;;17.74;63.67;101110.63;6200428;22;45315;-85
2023/05/29 04:26:32;;;;;;;;;14.67;14.67;;;;;17.75;63.72;101102.53;6227889;22;45420;-85
2023/05/29 04:28:58;;;;;;;;;16.00;14.33;;;;;17.71;64.23;101097.19;6199259;22;47073;-84
2023/05/29 04:31:26;;;;;;;;;19.67;18.67;;;;;17.89;64.78;101109.59;6225844;22;44773;-84
2023/05/29 04:33:55;;;;;;;;;10.33;9.33;;;;;17.97;63.79;101122.06;6201644;22;45347;-83
2023/05/29 04:36:27;;;;;;;;;20.67;19.33;;;;;17.95;63.96;101113.09;6200869;22;45344;-84
2023/05/29 04:38:53;;;;;;;;;16.67;13.00;;;;;17.85;64.09;101113.22;6202373;22;47205;-85
2023/05/29 04:41:23;;;;;;;;;15.00;14.67;;;;;17.92;65.06;101129.31;6200861;22;45303;-84
2023/05/29 04:43:51;;;;;;;;;16.00;16.00;;;;;17.89;63.40;101131.13;6199988;22;44792;-84
2023/05/29 04:46:17;;;;;;;;;20.33;20.33;;;;;17.92;65.12;101131.09;6199343;22;45275;-84
2023/05/29 04:48:43;;;;;;;;;19.67;18.00;;;;;17.92;64.28;101134.69;6198850;22;48574;-84
2023/05/29 04:51:10;;;;;;;;;17.67;17.67;;;;;17.96;64.33;101138.25;6200560;22;45329;-85
2023/05/29 04:53:42;;;;;;;;;19.67;18.00;;;;;17.97;63.90;101140.00;6227300;22;45331;-85
2023/05/29 04:56:07;;;;;;;;;17.00;16.33;;;;;17.98;64.29;101145.38;6227557;22;45311;-85
2023/05/29 04:58:33;;;;;;;;;17.67;17.67;;;;;18.00;63.96;101134.59;6226826;22;45360;-85
2023/05/29 05:01:02;;;;;;;;;17.33;17.00;;;;;18.06;63.62;101139.03;6226327;22;45300;-84
2023/05/29 05:03:28;;;;;;;;;18.33;17.67;;;;;18.11;64.13;101147.94;6197752;22;45319;-85
2023/05/29 05:05:54;;;;;;;;;20.00;16.67;;;;;18.16;63.70;101147.00;6225711;22;45332;-84
2023/05/29 05:08:19;;;;;;;;;19.33;18.33;;;;;18.16;64.30;101130.84;6225626;22;45623;-86
2023/05/29 05:10:45;;;;;;;;;19.00;18.00;;;;;18.29;63.31;101144.16;6222915;22;45268;-85
2023/05/29 05:13:12;;;;;;;;;18.33;16.67;;;;;18.41;63.34;101138.63;6196731;22;45313;-84
2023/05/29 05:15:37;;;;;;;;;28.33;22.33;;;;;18.42;62.69;101137.75;6197138;22;45219;-84
2023/05/29 05:18:03;;;;;;;;;20.00;20.00;;;;;18.48;62.94;101148.44;6196883;22;46934;-85
2023/05/29 05:20:35;;;;;;;;;17.33;15.67;;;;;18.53;63.28;101142.97;6196447;22;44737;-84
2023/05/29 05:23:01;;;;;;;;;22.33;18.00;;;;;18.62;62.42;101153.63;6197094;22;45337;-85
2023/05/29 05:25:26;;;;;;;;;16.00;14.33;;;;;18.69;62.15;101146.38;6225183;22;45624;-84
2023/05/29 05:27:52;;;;;;;;;16.00;14.33;;;;;18.84;61.54;101150.69;6198199;22;46802;-84
2023/05/29 05:30:17;;;;;;;;;19.00;18.33;;;;;19.00;61.62;101157.66;6197936;22;45337;-84
2023/05/29 05:32:42;;;;;;;;;14.33;13.00;;;;;19.07;61.53;101153.97;6199781;22;45340;-84
2023/05/29 05:35:11;;;;;;;;;20.67;16.67;;;;;19.18;61.21;101156.50;6226542;22;45286;-84
2023/05/29 05:37:43;;;;;;;;;22.00;21.00;;;;;19.20;61.26;101151.97;6199450;22;47117;-84
2023/05/29 05:40:08;;;;;;;;;21.00;19.67;;;;;19.20;60.40;101168.16;6199669;22;45368;-85
2023/05/29 05:42:35;;;;;;;;;20.67;18.33;;;;;19.19;60.37;101159.19;6225151;22;45176;-84
2023/05/29 05:45:00;;;;;;;;;22.33;19.00;;;;;19.07;60.97;101159.38;6199043;22;45397;-85
2023/05/29 05:47:27;;;;;;;;;18.67;18.67;;;;;19.07;60.63;101150.41;6226605;22;46021;-85
2023/05/29 05:49:52;;;;;;;;;19.00;18.00;;;;;19.10;61.13;101166.50;6227526;22;45363;-85
2023/05/29 05:52:19;;;;;;;;;21.67;20.00;;;;;19.20;60.63;101165.47;6227198;22;45280;-85
2023/05/29 05:54:45;;;;;;;;;24.00;21.00;;;;;19.27;60.72;101177.94;6198523;22;45308;-85
2023/05/29 05:57:11;;;;;;;;;23.00;23.00;;;;;19.30;60.45;101167.09;6199243;22;46578;-85
2023/05/29 05:59:36;;;;;;;;;22.00;20.67;;;;;19.35;60.13;101184.13;6198214;22;45653;-84
2023/05/29 06:02:03;;;;;;;;;24.33;21.33;;;;;19.42;60.21;101176.81;6226532;22;45338;-86
2023/05/29 06:04:29;;;;;;;;;22.00;20.67;;;;;19.47;59.53;101174.94;6200968;22;45282;-85
2023/05/29 06:06:55;;;;;;;;;23.00;20.33;;;;;19.54;59.42;101179.31;6201073;22;46865;-85
2023/05/29 06:09:21;;;;;;;;;16.33;12.33;;;;;19.49;59.47;101170.41;6201799;22;45783;-85
2023/05/29 06:11:47;;;;;;;;;21.00;20.33;;;;;19.54;59.16;101183.81;6227622;22;45381;-85
2023/05/29 06:14:16;;;;;;;;;20.00;17.67;;;;;19.56;59.20;101174.78;6199796;22;45356;-85
2023/05/29 06:20:13;;;;;;;;;17.00;15.67;;;;;19.39;59.58;101182.28;6225206;22;45377;-86
2023/05/29 06:22:39;;;;;;;;;24.33;19.00;;;;;19.43;59.65;101189.41;6219986;22;45402;-85
2023/05/29 06:25:04;;;;;;;;;23.33;22.00;;;;;19.62;59.31;101190.00;6197718;22;45372;-85
2023/05/29 06:27:30;;;;;;;;;24.00;21.33;;;;;19.63;59.23;101199.84;6226079;22;45297;-85
2023/05/29 06:33:42;;;;;;;;;22.33;20.67;;;;;19.89;58.55;101203.97;6229217;22;45325;-86
2023/05/29 06:36:09;;;;;;;;;23.67;22.00;;;;;19.79;59.08;101192.44;6200333;22;45804;-85
2023/05/29 06:38:34;;;;;;;;;19.67;18.33;;;;;19.83;58.84;101201.38;6200948;22;47577;-84
2023/05/29 06:41:00;;;;;;;;;19.67;19.33;;;;;19.97;58.49;101202.91;6201135;22;45544;-85
2023/05/29 06:43:25;;;;;;;;;15.67;15.67;;;;;20.05;57.92;101197.38;6200735;22;45372;-86
2023/05/29 06:45:51;;;;;;;;;20.33;18.67;;;;;20.10;57.81;101203.59;6201986;22;45260;-86
2023/05/29 06:48:16;;;;;;;;;21.00;21.00;;;;;20.11;57.86;101193.69;6226787;22;45229;-86
2023/05/29 06:50:42;;;;;;;;;22.67;21.00;;;;;20.29;57.44;101198.75;6227132;22;44823;-86
2023/05/29 06:53:07;;;;;;;;;22.67;20.67;;;;;20.42;57.02;101207.53;6229464;22;45390;-86
2023/05/29 06:55:32;;;;;;;;;24.33;21.00;;;;;20.41;57.10;101202.13;6202018;22;45308;-86
2023/05/29 06:57:58;;;;;;;;;18.33;18.00;;;;;20.42;57.30;101210.22;6229655;22;45907;-85
2023/05/29 07:00:23;;;;;;;;;22.00;21.00;;;;;20.44;57.20;101208.38;6202251;22;45344;-85
2023/05/29 07:02:49;;;;;;;;;17.33;16.33;;;;;20.51;56.81;101210.03;6200756;22;45256;-85
2023/05/29 07:05:14;;;;;;;;;18.67;17.00;;;;;20.55;56.29;101211.75;6228929;22;44792;-85
2023/05/29 07:07:40;;;;;;;;;20.67;18.33;;;;;20.43;56.89;101206.59;6200851;22;47435;-85
2023/05/29 07:10:06;;;;;;;;;22.33;20.67;;;;;20.38;56.57;101205.81;6201857;22;45141;-86
2023/05/29 07:15:53;;;;;;;;;24.00;22.00;;;;;20.41;56.80;101203.03;6226272;22;45422;-85
2023/05/29 07:18:27;;;;;;;;;18.67;16.67;;;;;20.59;56.49;101207.22;6199803;22;47790;-84
2023/05/29 07:20:56;;;;;;;;;22.00;22.00;;;;;20.63;56.31;101199.94;6199140;22;45405;-85
2023/05/29 07:23:21;;;;;;;;;21.67;20.00;;;;;20.61;56.06;101205.38;6200244;22;45398;-85
2023/05/29 07:25:47;;;;;;;;;26.00;24.00;;;;;20.77;55.77;101206.84;6227671;22;45093;-86
2023/05/29 07:28:12;;;;;;;;;24.67;21.67;;;;;20.85;55.71;101213.91;6200513;22;46950;-85
2023/05/29 07:30:38;;;;;;;;;22.67;19.00;;;;;20.83;55.62;101213.03;6205205;22;44692;-87
2023/05/29 07:33:04;;;;;;;;;23.00;22.00;;;;;20.82;55.65;101220.25;6204109;22;45360;-85
2023/05/29 07:35:32;;;;;;;;;17.67;17.00;;;;;20.79;55.44;101220.31;6201941;22;45375;-85
2023/05/29 07:37:58;;;;;;;;;21.67;21.67;;;;;20.57;55.89;101212.59;6202849;22;47111;-85
2023/05/29 07:40:24;;;;;;;;;21.00;20.00;;;;;20.61;56.00;101210.78;6202808;22;44783;-85
2023/05/29 07:42:55;;;;;;;;;20.00;16.00;;;;;20.77;55.87;101216.75;6203733;22;45413;-85
2023/05/29 07:45:20;;;;;;;;;28.33;24.00;;;;;20.80;55.72;101216.69;6234922;22;45303;-85
2023/05/29 07:47:47;;;;;;;;;23.67;23.67;;;;;20.83;55.52;101224.75;6201539;22;45735;-87
2023/05/29 07:50:14;;;;;;;;;21.33;20.67;;;;;20.92;55.51;101219.13;6202365;22;45308;-86
2023/05/29 07:52:39;;;;;;;;;27.33;24.33;;;;;20.88;55.20;101212.00;6203772;22;45388;-85
2023/05/29 07:55:05;;;;;;;;;24.00;23.67;;;;;21.01;54.72;101219.88;6203690;22;45190;-85
2023/05/29 07:57:31;;;;;;;;;20.67;19.00;;;;;21.03;54.68;101218.03;6204378;22;46817;-85
2023/05/29 07:59:57;;;;;;;;;28.67;24.33;;;;;21.02;54.78;101214.41;6203646;22;45406;-84
2023/05/29 08:02:23;;;;;;;;;21.33;20.00;;;;;21.08;54.84;101211.56;6201837;22;45299;-85
2023/05/29 08:04:52;;;;;;;;;26.00;23.00;;;;;21.15;54.57;101213.25;6229925;22;45260;-86
2023/05/29 08:07:17;;;;;;;;;25.00;23.00;;;;;21.22;54.24;101216.69;6199685;22;47015;-85
2023/05/29 08:09:43;;;;;;;;;22.00;20.67;;;;;21.15;54.14;101207.81;6226152;22;45401;-84
2023/05/29 08:12:15;;;;;;;;;25.67;24.00;;;;;21.26;54.34;101229.22;6200676;22;45379;-86
2023/05/29 08:14:41;;;;;;;;;21.67;20.67;;;;;21.11;54.32;101222.34;6199854;22;45426;-86
2023/05/29 08:17:06;;;;;;;;;24.33;24.33;;;;;21.15;54.39;101218.66;6199917;22;47003;-85
2023/05/29 08:19:32;;;;;;;;;21.00;18.67;;;;;21.28;54.34;101219.25;6228753;22;45357;-85
2023/05/29 08:21:57;;;;;;;;;25.00;24.00;;;;;21.16;54.00;101178.94;6228782;22;45366;-85
2023/05/29 08:24:23;;;;;;;;;26.33;24.00;;;;;21.35;53.75;101188.44;6229025;22;45323;-85
2023/05/29 08:26:49;;;;;;;;;24.67;22.67;;;;;21.60;53.56;101209.53;6201541;22;47219;-85
2023/05/29 08:29:20;;;;;;;;;28.67;28.00;;;;;21.62;53.28;101202.25;6202218;22;44647;-86
2023/05/29 08:31:45;;;;;;;;;25.67;25.33;;;;;21.43;53.12;101206.31;6202106;22;45443;-84
2023/05/29 08:34:11;;;;;;;;;27.33;24.33;;;;;21.55;53.64;101217.78;6199702;22;45828;-85
2023/05/29 08:36:37;;;;;;;;;18.00;13.00;;;;;21.48;53.52;101204.41;6226808;22;45407;-85
2023/05/29 08:39:04;;;;;;;;;26.33;26.33;;;;;21.52;53.45;101212.41;6200032;22;44903;-85
2023/05/29 08:42:23;;;;;;;;;28.00;23.00;;;;;21.46;53.35;101228.78;6224990;22;45345;-83
2023/05/29 08:45:03;;;;;;;;;21.00;21.00;;;;;21.20;53.18;101198.72;6199859;22;45385;-84
2023/05/29 08:47:40;;;;;;;;;26.00;24.33;;;;;21.45;53.48;101227.03;6232084;22;45432;-86
2023/05/29 08:50:07;;;;;;;;;26.67;25.67;;;;;21.28;53.72;101199.44;6227962;22;45288;-84
2023/05/29 08:52:40;;;;;;;;;24.67;24.67;;;;;21.49;53.70;101207.09;6226501;22;45327;-86
2023/05/29 08:55:40;;;;;;;;;25.33;25.33;;;;;21.54;53.27;101204.25;6233820;22;44796;-86
2023/05/29 08:58:11;;;;;;;;;23.00;23.00;;;;;21.73;53.84;101221.84;6211014;22;46734;-85
2023/05/29 09:00:49;;;;;;;;;21.67;21.67;;;;;21.80;53.02;101214.44;6212129;22;44738;-85
2023/05/29 09:03:20;;;;;;;;;26.33;23.67;;;;;21.72;52.91;101202.94;6236252;22;45308;-86
2023/05/29 09:05:48;;;;;;;;;28.00;24.00;;;;;21.77;52.58;101217.22;6211139;22;44758;-87
2023/05/29 09:08:28;;;;;;;;;24.33;24.00;;;;;21.75;52.94;101222.69;6237611;22;45735;-84
2023/05/29 09:10:58;;;;;;;;;28.67;26.33;;;;;21.85;53.07;101214.31;6187529;22;44758;-86
2023/05/29 09:13:32;;;;;;;;;26.67;24.67;;;;;21.94;53.07;101219.53;6212135;22;44682;-86
2023/05/29 09:16:29;;;;;;;;;;;;;;;;;;;;;
2023/05/29 09:19:12;;;;;;;;;17.00;14.00;;;;;22.14;52.49;101228.03;6236230;22;74386;-84
2023/05/29 09:21:38;;;;;;;;;26.67;23.00;;;;;21.85;52.79;101198.09;6177725;23;44683;-84
2023/05/29 09:24:13;;;;;;;;;24.00;22.00;;;;;21.97;52.65;101230.25;6187211;22;45288;-85
2023/05/29 09:27:39;;;;;;;;;27.00;24.33;;;;;22.14;52.06;101219.91;6261406;22;45361;-85
2023/05/29 09:30:44;;;;;;;;;15.33;15.33;;;;;22.18;52.03;101208.03;6227784;22;47663;-85
2023/05/29 09:33:11;;;;;;;;;23.00;23.00;;;;;22.18;52.24;101210.75;6194458;22;45420;-85
2023/05/29 09:35:39;;;;;;;;;26.00;24.67;;;;;22.20;51.86;101217.94;6227450;22;44716;-85
2023/05/29 09:39:08;;;;;;;;;;;;;;;;;;;;;
2023/05/29 09:41:35;;;;;;;;;20.67;20.67;;;;;22.34;52.19;101222.09;6226262;22;45445;-86
2023/05/29 09:44:03;;;;;;;;;23.00;22.33;;;;;22.12;52.02;101199.19;6215538;22;44811;-86
2023/05/29 09:46:45;;;;;;;;;22.67;19.33;;;;;22.20;52.31;101180.00;6236568;22;45381;-87
2023/05/29 09:49:43;;;;;;;;;24.67;24.67;;;;;22.44;51.46;101225.47;6239944;22;44638;-85
2023/05/29 09:52:25;;;;;;;;;24.67;22.33;;;;;22.39;51.86;101216.56;6207441;22;47770;-85
2023/05/29 09:55:17;;;;;;;;;27.00;25.00;;;;;22.50;51.84;101202.69;6238194;22;45216;-84
2023/05/29 09:57:51;;;;;;;;;27.67;26.67;;;;;22.42;51.98;101226.41;6237209;22;44757;-86
2023/05/29 10:00:45;;;;;;;;;25.00;24.33;;;;;22.42;51.45;101207.44;6212000;22;44814;-85
2023/05/29 10:03:14;;;;;;;;;17.67;16.00;;;;;22.51;51.61;101213.50;6236939;22;45864;-85
2023/05/29 10:05:57;;;;;;;;;20.67;20.67;;;;;22.52;51.23;101212.59;6236870;22;44745;-87
2023/05/29 10:08:52;;;;;;;;;26.67;26.67;;;;;22.61;51.41;101210.53;6233086;22;44812;-85
2023/05/29 10:11:55;;;;;;;;;25.33;25.33;;;;;22.63;51.52;101209.56;6237899;22;44764;-85
2023/05/29 10:14:36;;;;;;;;;31.33;28.67;;;;;22.59;51.79;101212.41;6220443;22;45126;-86
2023/05/29 10:20:46;;;;;;;;;25.67;25.67;;;;;22.70;51.84;101210.25;6202620;22;45537;-85
2023/05/29 10:33:02;;;;;;;;;29.33;27.00;;;;;22.97;50.65;101212.16;6217040;22;45645;-85
2023/05/29 10:35:50;;;;;;;;;21.33;21.33;;;;;22.95;50.67;101205.03;6242334;22;45401;-85
2023/05/29 10:38:22;;;;;;;;;26.00;26.00;;;;;23.01;51.22;101198.53;6255917;22;46765;-84
2023/05/29 10:40:47;;;;;;;;;27.67;24.00;;;;;22.87;50.91;101199.81;6234989;22;45915;-84
2023/05/29 10:43:33;;;;;;;;;23.00;23.00;;;;;22.95;50.17;101181.50;6232880;22;45767;-83
2023/05/29 10:46:00;;;;;;;;;19.33;19.00;;;;;22.84;50.30;101197.19;6261159;22;45279;-85
2023/05/29 10:48:28;;;;;;;;;27.67;24.67;;;;;22.86;50.97;101194.44;6262833;22;46127;-83
2023/05/29 10:50:57;;;;;;;;;24.67;22.00;;;;;22.95;50.62;101181.50;6263688;22;44698;-85
2023/05/29 10:53:30;;;;;;;;;20.33;19.33;;;;;23.05;50.40;101182.13;6235570;22;45413;-85
2023/05/29 10:55:56;;;;;;;;;20.00;19.00;;;;;23.13;50.25;101192.75;6260885;22;45318;-84
2023/05/29 10:58:24;;;;;;;;;26.00;24.00;;;;;23.13;50.23;101185.50;6235209;22;46985;-87
2023/05/29 11:00:49;;;;;;;;;21.67;21.00;;;;;23.15;49.89;101188.16;6261515;22;45395;-85
2023/05/29 11:03:21;;;;;;;;;24.67;23.00;;;;;23.22;49.97;101183.44;6263827;22;44735;-87
2023/05/29 11:06:34;;;;;;;;;24.67;22.00;;;;;23.35;49.71;101187.53;6262789;22;45107;-85
2023/05/29 11:09:07;;;;;;;;;22.67;21.00;;;;;23.26;49.42;101183.28;6136456;23;45384;-85
2023/05/29 11:11:38;;;;;;;;;22.33;20.00;;;;;23.23;50.38;101196.97;6135703;23;45311;-83
2023/05/29 11:14:05;;;;;;;;;22.33;21.00;;;;;23.25;49.51;101181.53;6112407;23;45389;-84
2023/05/29 11:16:32;;;;;;;;;14.67;14.33;;;;;23.25;49.74;101192.38;6115139;23;45292;-85
2023/05/29 11:19:10;;;;;;;;;22.33;20.33;;;;;23.44;49.95;101184.53;6112530;23;45404;-86
2023/05/29 11:22:09;;;;;;;;;21.67;20.00;;;;;23.56;49.86;101188.66;6091136;23;45318;-84
2023/05/29 11:24:37;;;;;;;;;21.00;21.00;;;;;23.59;49.36;101184.94;6117878;23;45823;-84
2023/05/29 11:27:08;;;;;;;;;21.67;20.67;;;;;23.54;48.76;101174.25;6114651;23;45389;-85
2023/05/29 11:29:35;;;;;;;;;22.67;21.67;;;;;23.59;49.12;101185.84;6138674;23;45600;-86
2023/05/29 11:32:07;;;;;;;;;21.33;20.33;;;;;23.55;49.41;101187.78;6111035;23;44837;-85
2023/05/29 11:34:33;;;;;;;;;21.00;18.00;;;;;23.44;48.76;101175.50;6160279;23;44923;-86
2023/05/29 11:37:04;;;;;;;;;21.67;19.00;;;;;23.47;48.36;101175.38;6167527;23;45280;-85
2023/05/29 11:39:31;;;;;;;;;22.67;20.67;;;;;23.49;48.74;101178.94;6142308;23;47496;-84
2023/05/29 11:41:57;;;;;;;;;20.33;17.00;;;;;23.49;48.77;101176.22;6141688;23;45336;-84
2023/05/29 11:44:28;;;;;;;;;15.67;15.67;;;;;23.54;49.06;101187.81;6232761;22;45633;-84
2023/05/29 11:47:28;;;;;;;;;15.33;15.33;;;;;23.47;48.48;101165.44;6288319;22;44794;-84